createdAt,value
2019-03-27T00:01:30.039Z,55.62
2019-03-27T00:03:59.116Z,55.48
2019-03-27T00:06:28.131Z,55.46
2019-03-27T00:08:56.852Z,55.55
2019-03-27T00:11:25.817Z,55.40
2019-03-27T00:13:54.668Z,56.23
2019-03-27T00:16:23.480Z,55.27
2019-03-27T00:18:52.315Z,55.48
2019-03-27T00:21:21.852Z,55.92
2019-03-27T00:23:50.914Z,55.57
2019-03-27T00:26:20.043Z,56.07
2019-03-27T00:28:49.200Z,56.02
2019-03-27T00:31:18.027Z,57.34
2019-03-27T00:33:46.799Z,56.17
2019-03-27T00:36:15.716Z,56.71
2019-03-27T00:38:44.525Z,56.52
2019-03-27T00:41:13.691Z,56.21
2019-03-27T00:43:42.904Z,56.36
2019-03-27T00:46:12.147Z,55.95
2019-03-27T00:48:41.299Z,56.55
2019-03-27T00:51:10.237Z,56.97
2019-03-27T00:53:39.055Z,56.85
2019-03-27T00:56:08.152Z,57.23
2019-03-27T00:58:36.970Z,57.36
2019-03-27T01:01:10.847Z,57.09
2019-03-27T01:03:39.684Z,57.63
2019-03-27T01:06:08.422Z,57.35
2019-03-27T01:08:37.429Z,57.67
2019-03-27T01:11:06.902Z,57.37
2019-03-27T01:13:35.748Z,57.60
2019-03-27T01:16:05.629Z,57.95
2019-03-27T01:18:34.810Z,57.92
2019-03-27T01:21:03.839Z,57.71
2019-03-27T01:23:32.899Z,58.34
2019-03-27T01:26:01.746Z,58.26
2019-03-27T01:28:31.029Z,58.29
2019-03-27T01:30:59.879Z,59.00
2019-03-27T01:33:28.853Z,59.04
2019-03-27T01:35:57.770Z,59.07
2019-03-27T01:38:28.920Z,58.90
2019-03-27T01:40:57.836Z,59.30
2019-03-27T01:43:27.011Z,59.54
2019-03-27T01:45:56.206Z,59.85
2019-03-27T01:48:25.370Z,60.11
2019-03-27T01:50:54.261Z,59.90
2019-03-27T01:53:23.516Z,59.60
2019-03-27T01:55:52.395Z,59.70
2019-03-27T01:58:21.809Z,60.29
2019-03-27T02:00:50.596Z,60.63
2019-03-27T02:03:19.741Z,60.67
2019-03-27T02:05:48.545Z,60.97
2019-03-27T02:08:17.347Z,61.10
2019-03-27T02:10:46.433Z,61.21
2019-03-27T02:13:16.568Z,61.02
2019-03-27T02:15:45.374Z,60.77
2019-03-27T02:18:14.266Z,61.68
2019-03-27T02:20:43.444Z,61.14
2019-03-27T02:23:12.650Z,61.21
2019-03-27T02:25:42.271Z,61.22
2019-03-27T02:28:11.353Z,61.23
2019-03-27T02:30:40.448Z,60.76
2019-03-27T02:33:09.207Z,60.97
2019-03-27T02:35:38.038Z,61.25
2019-03-27T02:38:07.164Z,61.41
2019-03-27T02:40:36.106Z,61.49
2019-03-27T02:43:05.073Z,61.34
2019-03-27T02:45:33.846Z,61.07
2019-03-27T02:48:02.605Z,61.05
2019-03-27T02:50:31.531Z,61.96
2019-03-27T02:53:00.418Z,61.88
2019-03-27T02:55:29.214Z,61.39
2019-03-27T02:57:58.402Z,62.71
2019-03-27T03:00:27.706Z,62.26
2019-03-27T03:02:57.679Z,61.71
2019-03-27T03:05:26.681Z,61.45
2019-03-27T03:07:55.640Z,62.47
2019-03-27T03:10:24.498Z,62.34
2019-03-27T03:12:53.624Z,62.04
2019-03-27T03:15:23.505Z,62.79
2019-03-27T03:17:52.301Z,62.54
2019-03-27T03:20:21.151Z,62.84
2019-03-27T03:22:49.948Z,62.48
2019-03-27T03:25:18.691Z,62.98
2019-03-27T03:27:47.929Z,62.66
2019-03-27T03:30:16.763Z,62.40
2019-03-27T03:32:45.868Z,62.82
2019-03-27T03:35:14.973Z,62.71
2019-03-27T03:37:43.829Z,62.79
2019-03-27T03:40:12.996Z,62.90
2019-03-27T03:42:41.797Z,63.44
2019-03-27T03:45:10.813Z,63.15
2019-03-27T03:47:39.611Z,62.59
2019-03-27T03:50:23.421Z,62.88
2019-03-27T03:52:52.509Z,63.68
2019-03-27T03:55:21.770Z,63.25
2019-03-27T03:57:50.638Z,64.38
2019-03-27T04:00:20.218Z,63.69
2019-03-27T04:02:49.145Z,63.36
2019-03-27T04:05:21.472Z,63.42
2019-03-27T04:07:50.335Z,63.68
2019-03-27T04:10:19.124Z,63.16
2019-03-27T04:12:47.910Z,63.63
2019-03-27T04:15:16.881Z,63.51
2019-03-27T04:17:46.307Z,62.88
2019-03-27T04:20:15.155Z,62.81
2019-03-27T04:22:44.294Z,62.75
2019-03-27T04:25:13.959Z,62.74
2019-03-27T04:27:42.891Z,63.39
2019-03-27T04:30:11.687Z,63.44
2019-03-27T04:32:41.084Z,63.25
2019-03-27T04:35:12.086Z,63.70
2019-03-27T04:37:40.900Z,63.86
2019-03-27T04:40:10.016Z,64.01
2019-03-27T04:42:38.870Z,63.95
2019-03-27T04:45:08.195Z,64.16
2019-03-27T04:47:37.374Z,63.35
2019-03-27T04:50:07.413Z,63.97
2019-03-27T04:52:36.198Z,64.73
2019-03-27T04:55:05.718Z,64.30
2019-03-27T04:57:34.523Z,64.29
2019-03-27T05:00:06.253Z,65.00
2019-03-27T05:02:35.452Z,64.99
2019-03-27T05:05:04.918Z,65.14
2019-03-27T05:07:33.984Z,64.54
2019-03-27T05:10:02.838Z,65.35
2019-03-27T05:12:31.597Z,64.39
2019-03-27T05:15:00.509Z,63.89
2019-03-27T05:17:29.439Z,64.47
2019-03-27T05:19:59.736Z,64.29
2019-03-27T05:22:28.570Z,64.51
2019-03-27T05:24:57.940Z,65.50
2019-03-27T05:27:27.978Z,66.79
2019-03-27T05:29:57.485Z,66.21
2019-03-27T05:32:26.687Z,66.40
2019-03-27T05:34:55.468Z,64.61
2019-03-27T05:37:24.324Z,65.25
2019-03-27T05:39:53.429Z,64.97
2019-03-27T05:42:22.296Z,65.00
2019-03-27T05:44:51.667Z,64.90
2019-03-27T05:47:20.765Z,65.04
2019-03-27T05:49:50.010Z,64.92
2019-03-27T05:52:18.873Z,64.83
2019-03-27T05:54:47.816Z,65.25
2019-03-27T05:57:16.751Z,65.29
2019-03-27T05:59:45.717Z,65.18
2019-03-27T06:02:14.477Z,64.98
2019-03-27T06:04:43.566Z,65.10
2019-03-27T06:07:12.431Z,64.89
2019-03-27T06:09:41.736Z,65.40
2019-03-27T06:12:10.835Z,65.13
2019-03-27T06:14:39.740Z,64.93
2019-03-27T06:17:08.537Z,64.27
2019-03-27T06:19:37.423Z,64.14
2019-03-27T06:22:06.278Z,63.33
2019-03-27T06:24:35.088Z,64.47
2019-03-27T06:27:03.880Z,64.34
2019-03-27T06:29:32.707Z,64.80
2019-03-27T06:32:01.569Z,64.16
2019-03-27T06:34:30.699Z,63.13
2019-03-27T06:36:59.761Z,63.54
2019-03-27T06:39:28.585Z,64.03
2019-03-27T06:41:57.713Z,63.69
2019-03-27T06:44:29.340Z,64.12
2019-03-27T06:46:58.699Z,63.68
2019-03-27T06:49:27.562Z,63.71
2019-03-27T06:51:56.350Z,63.51
2019-03-27T06:54:25.233Z,62.68
2019-03-27T06:56:54.125Z,62.68
2019-03-27T06:59:23.035Z,62.36
2019-03-27T07:01:51.952Z,63.13
2019-03-27T07:04:20.766Z,62.50
2019-03-27T07:06:49.620Z,60.97
2019-03-27T07:09:18.925Z,62.25
2019-03-27T07:11:48.051Z,61.81
2019-03-27T07:14:16.836Z,61.46
2019-03-27T07:16:45.950Z,61.15
2019-03-27T07:19:14.735Z,60.58
2019-03-27T07:21:43.530Z,61.50
2019-03-27T07:24:13.707Z,60.44
2019-03-27T07:26:42.496Z,59.49
2019-03-27T07:29:11.735Z,59.55
2019-03-27T07:31:40.782Z,60.68
2019-03-27T07:34:09.641Z,58.61
2019-03-27T07:36:38.843Z,58.52
2019-03-27T07:39:11.161Z,59.58
2019-03-27T07:41:38.605Z,59.43
2019-03-27T07:44:07.702Z,58.71
2019-03-27T07:46:36.617Z,59.33
2019-03-27T07:49:06.549Z,59.82
2019-03-27T07:51:35.384Z,58.45
2019-03-27T07:54:04.187Z,58.97
2019-03-27T07:56:33.044Z,58.32
2019-03-27T07:59:02.180Z,57.84
2019-03-27T08:01:31.488Z,57.25
2019-03-27T08:04:00.437Z,57.68
2019-03-27T08:06:29.318Z,57.62
2019-03-27T08:08:58.195Z,57.05
2019-03-27T08:11:27.085Z,56.12
2019-03-27T08:13:56.168Z,57.57
2019-03-27T08:16:26.146Z,57.35
2019-03-27T08:19:06.909Z,59.15
2019-03-27T08:21:25.780Z,57.74
2019-03-27T08:23:54.640Z,56.35
2019-03-27T08:26:23.510Z,55.57
2019-03-27T08:28:52.432Z,54.51
2019-03-27T08:31:21.522Z,54.87
2019-03-27T08:33:50.372Z,56.33
2019-03-27T08:36:19.185Z,55.47
2019-03-27T08:38:48.140Z,54.82
2019-03-27T08:41:16.971Z,53.02
2019-03-27T08:43:45.950Z,51.88
2019-03-27T08:46:14.710Z,51.17
2019-03-27T08:48:43.774Z,52.53
2019-03-27T08:51:13.173Z,52.98
2019-03-27T08:53:41.965Z,52.35
2019-03-27T08:56:10.816Z,53.04
2019-03-27T08:58:39.608Z,54.18
2019-03-27T09:01:09.537Z,52.34
2019-03-27T09:03:38.375Z,52.47
2019-03-27T09:06:07.614Z,51.84
2019-03-27T09:08:36.698Z,52.75
2019-03-27T09:11:05.494Z,55.20
2019-03-27T09:13:34.341Z,53.38
2019-03-27T09:16:03.216Z,52.38
2019-03-27T09:18:32.097Z,50.88
2019-03-27T09:21:00.904Z,50.88
2019-03-27T09:23:29.673Z,51.83
2019-03-27T09:25:58.761Z,51.76
2019-03-27T09:28:27.955Z,50.68
2019-03-27T09:30:56.825Z,50.70
2019-03-27T09:33:25.820Z,51.80
2019-03-27T09:35:54.722Z,50.38
2019-03-27T09:38:23.871Z,47.54
2019-03-27T09:40:52.746Z,46.46
2019-03-27T09:43:21.537Z,45.95
2019-03-27T09:45:50.348Z,45.64
2019-03-27T09:48:19.415Z,46.69
2019-03-27T09:50:48.223Z,47.43
2019-03-27T09:53:17.170Z,48.12
2019-03-27T09:55:45.961Z,47.51
2019-03-27T09:58:14.850Z,47.34
2019-03-27T10:01:10.393Z,47.08
2019-03-27T10:03:39.250Z,46.80
2019-03-27T10:06:08.449Z,43.30
2019-03-27T10:08:37.482Z,42.83
2019-03-27T10:11:06.681Z,43.19
2019-03-27T10:13:35.602Z,43.41
2019-03-27T10:16:04.754Z,42.39
2019-03-27T10:18:33.562Z,42.34
2019-03-27T10:21:02.357Z,43.43
2019-03-27T10:23:31.552Z,42.46
2019-03-27T10:26:01.004Z,42.45
2019-03-27T10:28:29.921Z,41.33
2019-03-27T10:30:58.755Z,41.39
2019-03-27T10:33:27.841Z,40.95
2019-03-27T10:35:56.604Z,41.33
2019-03-27T10:38:25.740Z,40.08
2019-03-27T10:40:55.560Z,41.06
2019-03-27T10:43:24.445Z,43.04
2019-03-27T10:45:53.290Z,42.63
2019-03-27T10:48:22.124Z,41.91
2019-03-27T10:50:50.962Z,40.86
2019-03-27T10:53:20.014Z,41.75
2019-03-27T10:55:49.256Z,41.51
2019-03-27T10:58:18.456Z,43.41
2019-03-27T11:00:47.561Z,43.19
2019-03-27T11:03:16.093Z,41.40
2019-03-27T11:05:44.928Z,40.71
2019-03-27T11:08:14.301Z,39.04
2019-03-27T11:10:49.053Z,37.97
2019-03-27T11:13:18.095Z,36.43
2019-03-27T11:15:47.207Z,37.74
2019-03-27T11:18:16.043Z,37.52
2019-03-27T11:20:46.755Z,37.43
2019-03-27T11:23:15.678Z,37.86
2019-03-27T11:25:44.902Z,37.21
2019-03-27T11:28:15.132Z,36.70
2019-03-27T11:30:43.901Z,36.61
2019-03-27T11:33:12.950Z,39.53
2019-03-27T11:35:41.910Z,36.70
2019-03-27T11:38:10.822Z,38.76
2019-03-27T11:40:39.899Z,39.04
2019-03-27T11:43:08.880Z,38.93
2019-03-27T11:45:37.806Z,38.41
2019-03-27T11:48:08.858Z,39.49
2019-03-27T11:50:44.619Z,39.57
2019-03-27T11:53:08.926Z,39.36
2019-03-27T11:55:37.724Z,40.67
2019-03-27T11:58:06.768Z,41.09
2019-03-27T12:00:35.654Z,43.59
2019-03-27T12:03:04.734Z,44.76
2019-03-27T12:05:34.080Z,45.08
2019-03-27T12:08:03.083Z,46.56
2019-03-27T12:10:32.014Z,46.19
2019-03-27T12:13:01.402Z,46.40
2019-03-27T12:15:43.955Z,45.68
2019-03-27T12:18:14.948Z,46.45
2019-03-27T12:20:57.716Z,45.35
2019-03-27T12:23:14.572Z,44.61
2019-03-27T12:25:43.517Z,43.50
2019-03-27T12:28:12.312Z,42.56
2019-03-27T12:30:41.739Z,42.22
2019-03-27T12:33:10.731Z,42.17
2019-03-27T12:35:40.359Z,41.32
2019-03-27T12:38:10.523Z,41.04
2019-03-27T12:40:39.317Z,40.30
2019-03-27T12:43:08.155Z,40.58
2019-03-27T12:45:37.351Z,40.91
2019-03-27T12:48:06.798Z,41.93
2019-03-27T12:50:35.730Z,41.41
2019-03-27T12:53:05.135Z,42.22
2019-03-27T12:55:34.383Z,42.46
2019-03-27T12:58:03.273Z,42.58
2019-03-27T13:00:32.305Z,41.76
2019-03-27T13:03:01.246Z,41.79
2019-03-27T13:05:30.718Z,42.67
2019-03-27T13:07:59.871Z,42.13
2019-03-27T13:10:28.821Z,41.43
2019-03-27T13:12:57.934Z,41.86
2019-03-27T13:15:26.994Z,41.55
2019-03-27T13:17:56.412Z,41.30
2019-03-27T13:20:25.713Z,40.92
2019-03-27T13:22:54.622Z,40.31
2019-03-27T13:25:23.540Z,40.00
2019-03-27T13:27:52.507Z,39.21
2019-03-27T13:30:21.391Z,39.48
2019-03-27T13:32:51.194Z,39.21
2019-03-27T13:35:20.085Z,39.24
2019-03-27T13:37:49.481Z,39.10
2019-03-27T13:40:19.160Z,40.65
2019-03-27T13:42:48.022Z,40.29
2019-03-27T13:45:18.203Z,38.99
2019-03-27T13:47:47.206Z,38.96
2019-03-27T13:50:16.181Z,39.41
2019-03-27T13:52:45.033Z,39.15
2019-03-27T13:55:14.155Z,38.69
2019-03-27T13:57:43.240Z,37.44
2019-03-27T14:00:13.717Z,36.94
2019-03-27T14:02:42.565Z,35.97
2019-03-27T14:05:13.887Z,36.43
2019-03-27T14:07:43.157Z,36.02
2019-03-27T14:10:12.137Z,30.46
2019-03-27T14:12:41.997Z,25.71
2019-03-27T14:15:10.839Z,23.98
2019-03-27T14:17:40.035Z,25.97
2019-03-27T14:20:08.945Z,28.19
2019-03-27T14:22:38.214Z,31.41
2019-03-27T14:25:07.744Z,33.55
2019-03-27T14:27:37.374Z,33.34
2019-03-27T14:30:07.923Z,34.32
2019-03-27T14:32:37.931Z,35.48
2019-03-27T14:35:06.977Z,35.45
2019-03-27T14:37:36.164Z,35.72
2019-03-27T14:40:08.153Z,31.61
2019-03-27T14:42:37.311Z,29.41
2019-03-27T14:45:08.652Z,29.90
2019-03-27T14:47:38.217Z,29.24
2019-03-27T14:50:08.956Z,25.18
2019-03-27T14:52:38.249Z,24.43
2019-03-27T14:55:08.544Z,26.47
2019-03-27T14:57:38.553Z,28.40
2019-03-27T15:00:10.415Z,29.88
2019-03-27T15:02:39.536Z,32.37
2019-03-27T15:05:09.215Z,32.71
2019-03-27T15:07:38.488Z,33.54
2019-03-27T15:10:09.219Z,32.79
2019-03-27T15:12:38.487Z,32.56
2019-03-27T15:15:07.699Z,34.08
2019-03-27T15:17:36.559Z,35.95
2019-03-27T15:20:09.166Z,37.36
2019-03-27T15:22:40.615Z,38.11
2019-03-27T15:25:09.831Z,38.85
2019-03-27T15:27:44.722Z,38.38
2019-03-27T15:30:14.151Z,38.62
2019-03-27T15:32:47.324Z,38.42
2019-03-27T15:35:16.749Z,38.24
2019-03-27T15:37:46.000Z,39.17
2019-03-27T15:40:17.135Z,38.21
2019-03-27T15:42:46.179Z,38.46
2019-03-27T15:45:17.348Z,38.42
2019-03-27T15:47:46.350Z,38.55
2019-03-27T15:50:15.274Z,39.24
2019-03-27T15:52:45.253Z,38.64
2019-03-27T15:55:14.450Z,38.90
2019-03-27T15:57:44.316Z,38.44
2019-03-27T16:00:14.686Z,38.21
2019-03-27T16:02:43.985Z,38.49
2019-03-27T16:05:12.919Z,38.29
2019-03-27T16:07:41.888Z,38.39
2019-03-27T16:10:13.325Z,37.37
2019-03-27T16:12:42.230Z,37.88
2019-03-27T16:15:12.380Z,38.95
2019-03-27T16:17:42.433Z,39.36
2019-03-27T16:20:11.697Z,38.94
2019-03-27T16:22:50.662Z,39.47
2019-03-27T16:25:11.489Z,39.91
2019-03-27T16:27:40.787Z,40.65
2019-03-27T16:30:11.261Z,40.13
2019-03-27T16:32:40.202Z,40.63
2019-03-27T16:35:10.449Z,40.23
2019-03-27T16:37:39.301Z,40.37
2019-03-27T16:40:09.753Z,40.74
2019-03-27T16:42:41.448Z,41.00
2019-03-27T16:45:15.503Z,40.92
2019-03-27T16:47:45.192Z,41.11
2019-03-27T16:50:16.416Z,40.79
2019-03-27T16:52:45.358Z,41.05
2019-03-27T16:55:14.328Z,40.52
2019-03-27T16:57:47.454Z,40.66
2019-03-27T17:00:16.810Z,40.68
2019-03-27T17:02:45.966Z,41.14
2019-03-27T17:05:15.992Z,40.84
2019-03-27T17:07:44.969Z,41.33
2019-03-27T17:10:13.901Z,41.09
2019-03-27T17:12:42.606Z,40.95
2019-03-27T17:15:11.513Z,40.74
2019-03-27T17:17:40.421Z,41.07
2019-03-27T17:20:09.352Z,41.11
2019-03-27T17:22:38.154Z,41.25
2019-03-27T17:25:07.449Z,41.79
2019-03-27T17:27:36.708Z,41.22
2019-03-27T17:30:06.022Z,41.52
2019-03-27T17:32:35.077Z,41.48
2019-03-27T17:35:04.359Z,41.37
2019-03-27T17:37:33.550Z,42.52
2019-03-27T17:40:02.532Z,42.44
2019-03-27T17:42:31.488Z,42.81
2019-03-27T17:45:01.001Z,43.19
2019-03-27T17:47:29.842Z,43.81
2019-03-27T17:49:59.008Z,44.07
2019-03-27T17:52:29.583Z,44.68
2019-03-27T17:54:59.481Z,44.83
2019-03-27T17:57:28.327Z,45.29
2019-03-27T17:59:57.347Z,45.46
2019-03-27T18:02:27.133Z,45.76
2019-03-27T18:04:56.396Z,46.31
2019-03-27T18:07:25.343Z,46.71
2019-03-27T18:09:54.772Z,46.72
2019-03-27T18:12:24.835Z,46.62
2019-03-27T18:14:54.635Z,47.37
2019-03-27T18:17:23.473Z,47.51
2019-03-27T18:19:52.518Z,47.30
2019-03-27T18:22:21.392Z,47.52
2019-03-27T18:24:50.339Z,47.75
2019-03-27T18:27:19.468Z,48.59
2019-03-27T18:29:48.627Z,48.15
2019-03-27T18:32:17.866Z,48.82
2019-03-27T18:34:46.354Z,48.99
2019-03-27T18:37:15.711Z,48.04
2019-03-27T18:39:44.128Z,47.94
2019-03-27T18:42:13.194Z,48.45
2019-03-27T18:44:42.140Z,48.45
2019-03-27T18:47:11.349Z,49.81
2019-03-27T18:49:40.332Z,48.25
2019-03-27T18:52:09.697Z,48.60
2019-03-27T18:54:38.611Z,48.61
2019-03-27T18:57:09.407Z,48.98
2019-03-27T18:59:39.496Z,49.62
2019-03-27T19:02:09.043Z,49.76
2019-03-27T19:04:39.273Z,50.10
2019-03-27T19:07:10.591Z,50.30
2019-03-27T19:09:39.902Z,51.23
2019-03-27T19:12:09.552Z,51.91
2019-03-27T19:14:38.808Z,51.87
2019-03-27T19:17:07.917Z,53.41
2019-03-27T19:19:37.843Z,53.05
2019-03-27T19:22:07.066Z,51.72
2019-03-27T19:24:40.604Z,51.94
2019-03-27T19:27:12.185Z,53.20
2019-03-27T19:29:44.854Z,53.55
2019-03-27T19:32:13.239Z,54.29
2019-03-27T19:34:42.986Z,53.94
2019-03-27T19:37:12.379Z,54.87
2019-03-27T19:39:41.730Z,53.21
2019-03-27T19:42:13.561Z,53.54
2019-03-27T19:44:42.851Z,52.59
2019-03-27T19:47:15.232Z,52.29
2019-03-27T19:49:45.923Z,52.35
2019-03-27T19:52:15.727Z,52.66
2019-03-27T19:54:47.837Z,52.85
2019-03-27T19:57:17.749Z,53.21
2019-03-27T19:59:46.945Z,53.33
2019-03-27T20:02:16.188Z,53.44
2019-03-27T20:04:45.964Z,53.74
2019-03-27T20:07:15.404Z,55.33
2019-03-27T20:09:44.497Z,54.44
2019-03-27T20:12:13.807Z,54.98
2019-03-27T20:14:42.828Z,54.19
2019-03-27T20:17:11.958Z,55.68
2019-03-27T20:19:42.998Z,55.04
2019-03-27T20:22:12.277Z,53.91
2019-03-27T20:24:42.268Z,54.44
2019-03-27T20:27:11.914Z,53.94
2019-03-27T20:29:41.128Z,55.04
2019-03-27T20:32:11.908Z,54.24
2019-03-27T20:34:41.590Z,55.28
2019-03-27T20:37:12.799Z,55.01
2019-03-27T20:39:42.820Z,55.10
2019-03-27T20:42:12.129Z,54.99
2019-03-27T20:44:41.661Z,55.05
2019-03-27T20:47:14.723Z,55.45
2019-03-27T20:49:49.610Z,56.23
2019-03-27T20:52:18.832Z,56.84
2019-03-27T20:54:54.915Z,56.75
2019-03-27T20:57:19.551Z,56.92
2019-03-27T20:59:48.838Z,57.51
2019-03-27T21:02:20.502Z,57.49
2019-03-27T21:04:49.575Z,56.65
2019-03-27T21:07:18.431Z,56.28
2019-03-27T21:09:48.065Z,56.33
2019-03-27T21:12:17.595Z,56.94
2019-03-27T21:14:46.488Z,57.01
2019-03-27T21:17:15.536Z,57.11
2019-03-27T21:19:44.375Z,57.44
2019-03-27T21:22:13.568Z,57.85
2019-03-27T21:24:42.429Z,58.48
2019-03-27T21:27:11.261Z,58.69
2019-03-27T21:29:40.538Z,59.09
2019-03-27T21:32:09.382Z,59.42
2019-03-27T21:34:38.182Z,59.51
2019-03-27T21:37:06.980Z,59.49
2019-03-27T21:39:36.538Z,59.46
2019-03-27T21:42:06.536Z,60.00
2019-03-27T21:44:35.427Z,60.12
2019-03-27T21:47:04.385Z,60.17
2019-03-27T21:49:35.234Z,60.70
2019-03-27T21:52:04.076Z,61.14
2019-03-27T21:54:32.737Z,60.66
2019-03-27T21:57:01.646Z,60.51
2019-03-27T21:59:30.291Z,61.40
2019-03-27T22:01:59.521Z,61.28
2019-03-27T22:04:28.552Z,61.47
2019-03-27T22:06:57.885Z,61.85
2019-03-27T22:09:27.100Z,61.42
2019-03-27T22:11:56.011Z,62.06
2019-03-27T22:14:24.880Z,61.75
2019-03-27T22:16:53.706Z,61.67
2019-03-27T22:19:22.993Z,61.75
2019-03-27T22:21:52.011Z,61.60
2019-03-27T22:24:20.787Z,61.49
2019-03-27T22:26:49.655Z,61.83
2019-03-27T22:29:18.547Z,62.34
2019-03-27T22:31:47.670Z,63.12
2019-03-27T22:34:16.489Z,63.82
2019-03-27T22:36:45.394Z,63.65
2019-03-27T22:39:14.318Z,63.85
2019-03-27T22:41:43.338Z,64.16
2019-03-27T22:44:12.143Z,63.56
2019-03-27T22:46:40.958Z,63.39
2019-03-27T22:49:09.799Z,63.33
2019-03-27T22:51:38.721Z,63.93
2019-03-27T22:54:08.712Z,64.13
2019-03-27T22:56:37.552Z,64.19
2019-03-27T22:59:06.395Z,64.18
2019-03-27T23:01:42.586Z,64.06
2019-03-27T23:16:31.736Z,65.97
2019-03-27T23:19:00.669Z,66.46
2019-03-27T23:21:29.623Z,66.32
2019-03-27T23:23:58.409Z,66.81
2019-03-27T23:26:27.558Z,66.59
2019-03-27T23:28:56.361Z,66.08
2019-03-27T23:31:25.246Z,66.09
2019-03-27T23:33:54.183Z,66.28
2019-03-27T23:36:23.256Z,66.37
2019-03-27T23:38:52.129Z,66.89
2019-03-27T23:41:21.142Z,67.02
2019-03-27T23:43:52.765Z,66.77
2019-03-27T23:46:24.475Z,67.17
2019-03-27T23:48:53.285Z,66.42
2019-03-27T23:51:22.195Z,66.24
2019-03-27T23:53:51.054Z,67.08
2019-03-27T23:56:20.014Z,67.65
2019-03-27T23:58:48.850Z,67.48
